首页
METAR-TAF:

METAR-TAF

机场 :

Sharurah, 沙特阿拉伯

纬度: 17-28N, 经度: 047-07E, 海拔: 720米

当前天气观测

该预报发布于1小时和10分钟前的12:00 UTC
风速8节,风向东转东北
温度 42°C
湿度 5%
气压 1006 hPa
能见度10公里或以上
1500米以下无云,无积雨云

METAR: OESH 171200Z 06008KT CAVOK 42/M05 Q1006 NOSIG

时间: 16:10 (13:10 UTC)

预报

该预报发布于2小时和10分钟前的11:00 UTC
预报有效从17日的 12点(UTC)到 18日的 18点(UTC)
风速12节,风向北转东北
能见度10公里或以上
1500米以下无云,无积雨云
成为
从 17日的 20点(UTC)到 17日的 22点(UTC)
风速6节,风向南转南东
成为
从 18日的 08点(UTC)到 18日的 10点(UTC)
风速10节,风向北转东北

TAF: OESH 171100Z 1712/1818 03012KT CAVOK BECMG 1720/1722 16006KT BECMG 1808/1810 02010KT

超过4000个机场的气象观测和天气预报(METAR&TAF报告)。

可查询的气象台以黄色和红色小点在地图上表示。

将鼠标移到小点上方,可查看气象台名称。

然后点击查看天气观测和预报。

如需切换地图:点击带黑十字的绿色按钮放大地图;点击带横线的绿色按钮缩小地图;或者点击绿色箭头查看邻近地区的地图。


METAR-TAF: